createdAt,value
2023-05-10T00:13:10.001Z,72.96
2023-05-10T00:33:30.448Z,73.64
2023-05-10T00:53:50.735Z,75.03
2023-05-10T01:14:10.953Z,76.75
2023-05-10T01:34:30.848Z,79.76
2023-05-10T01:54:32.585Z,83.27
2023-05-10T02:14:34.325Z,87.29
2023-05-10T02:34:36.170Z,91.71
2023-05-10T02:54:37.782Z,97.19
2023-05-10T03:14:39.382Z,100.00
2023-05-10T03:34:41.722Z,100.00
2023-05-10T03:54:44.154Z,100.00
2023-05-10T04:14:45.820Z,65.10
2023-05-10T04:34:47.376Z,59.23
2023-05-10T04:54:48.957Z,53.82
2023-05-10T05:14:50.564Z,51.05
2023-05-10T05:34:52.149Z,50.71
2023-05-10T05:54:55.599Z,52.08
2023-05-10T06:14:57.245Z,46.02
2023-05-10T06:34:58.895Z,48.33
2023-05-10T06:55:00.535Z,48.58
2023-05-10T07:15:02.213Z,47.42
2023-05-10T07:35:03.767Z,52.05
2023-05-10T07:55:05.255Z,49.59
2023-05-10T08:15:07.116Z,48.78
2023-05-10T08:35:08.729Z,51.86
2023-05-10T08:55:10.370Z,54.11
2023-05-10T09:15:11.891Z,57.95
2023-05-10T09:35:13.439Z,56.15
2023-05-10T09:55:15.192Z,55.67
2023-05-10T10:15:17.024Z,54.53
2023-05-10T10:35:30.646Z,52.94
2023-05-10T10:55:37.291Z,53.64
2023-05-10T11:15:41.053Z,51.29
2023-05-10T11:35:43.624Z,50.78
2023-05-10T11:55:45.343Z,48.38
2023-05-10T12:15:49.361Z,49.41
2023-05-10T12:35:51.321Z,46.84
2023-05-10T12:55:52.787Z,48.18
2023-05-10T13:15:54.236Z,48.04
2023-05-10T13:35:55.901Z,44.85
2023-05-10T13:55:57.586Z,43.02
2023-05-10T14:15:59.126Z,42.49
2023-05-10T14:36:00.659Z,40.01
2023-05-10T14:56:02.455Z,41.40
2023-05-10T15:16:04.291Z,40.30
2023-05-10T15:36:05.781Z,40.29
2023-05-10T15:56:07.455Z,40.43
2023-05-10T16:16:11.170Z,42.72
2023-05-10T16:36:12.755Z,43.56
2023-05-10T16:56:14.450Z,43.89
2023-05-10T17:36:53.166Z,44.34
2023-05-10T17:56:56.015Z,47.22
2023-05-10T18:16:57.845Z,49.98
2023-05-10T18:36:59.483Z,53.62
2023-05-10T18:57:01.086Z,56.67
2023-05-10T19:17:02.664Z,59.66
2023-05-10T19:37:07.379Z,62.67
2023-05-10T19:57:09.156Z,63.90
2023-05-10T20:17:11.463Z,63.39
2023-05-10T20:37:13.161Z,64.64
2023-05-10T20:57:14.796Z,67.79
2023-05-10T21:17:18.126Z,71.59
2023-05-10T21:37:21.553Z,73.28
2023-05-10T21:57:23.343Z,75.67
2023-05-10T22:17:33.405Z,71.37
2023-05-10T22:38:15.578Z,72.54
2023-05-10T22:58:50.196Z,73.31
2023-05-10T23:18:52.065Z,73.66
2023-05-10T23:38:53.850Z,71.32
2023-05-10T23:58:55.365Z,71.28
